San Saba, Texas
Current Conditions -  °F | °C
As of 2:10 AM on Saturday 01 Nov 2014 (Local Time) from KAQO Reporting Station
Clear Clear  
Wind Chill:   Ceiling: Unl
Heat Index:   Visibility: 10mi
Dew Point:   Wind: 0mph
Humidity: 81%   Direction: NA
Pressure: 30.37"   Gusts: NA
Location:  31.2°N, 98.72°W
Report Text: KAQO 010710Z AUTO 00000KT 10SM CLR 07/04 A3037 RMK AO2
Loading
Personal Weather Stations






























Interactive Weather Map
Tropical Storm Tracking
New forecast layout! Learn more

10-Day Weather Forecast

Advertisements
Track Severe Weather on mobile